createdAt,value
2023-08-15T00:01:37.525Z,99369.41
2023-08-15T00:04:17.464Z,99348.31
2023-08-15T00:07:09.959Z,99363.16
2023-08-15T00:10:13.132Z,99359.50
2023-08-15T00:12:53.881Z,99351.66
2023-08-15T00:15:39.567Z,99361.00
2023-08-15T00:18:37.360Z,99354.41
2023-08-15T00:21:07.415Z,99353.72
2023-08-15T00:24:18.428Z,99354.84
2023-08-15T00:27:30.224Z,99355.84
2023-08-15T00:30:36.090Z,99353.72
2023-08-15T00:33:37.559Z,99361.16
2023-08-15T00:36:20.438Z,99353.72
2023-08-15T00:39:08.358Z,99358.69
2023-08-15T00:41:44.392Z,99348.56
2023-08-15T00:44:25.793Z,99348.63
2023-08-15T00:47:16.333Z,99335.28
2023-08-15T00:50:06.979Z,99342.88
2023-08-15T00:52:41.100Z,99342.34
2023-08-15T00:55:14.420Z,99344.00
2023-08-15T00:58:01.183Z,99346.78
2023-08-15T01:00:51.663Z,99339.72
2023-08-15T01:04:04.919Z,99340.31
2023-08-15T01:07:03.254Z,99339.94
2023-08-15T01:10:16.783Z,99338.91
2023-08-15T01:13:30.411Z,99349.09
2023-08-15T01:16:18.080Z,99342.50
2023-08-15T01:19:40.824Z,99343.03
2023-08-15T01:22:38.279Z,99338.78
2023-08-15T01:25:30.421Z,99338.22
2023-08-15T01:28:24.121Z,99340.84
2023-08-15T01:31:21.822Z,99327.34
2023-08-15T01:34:38.234Z,99343.69
2023-08-15T01:37:40.916Z,99340.38
2023-08-15T01:40:37.340Z,99342.84
2023-08-15T01:43:28.410Z,99334.44
2023-08-15T01:46:12.496Z,99346.41
2023-08-15T01:49:19.718Z,99332.31
2023-08-15T01:52:10.253Z,99336.41
2023-08-15T01:55:06.548Z,99340.19
2023-08-15T01:58:09.208Z,99348.94
2023-08-15T02:00:49.767Z,99339.81
2023-08-15T02:03:47.447Z,99346.75
2023-08-15T02:06:51.962Z,99347.56
2023-08-15T02:10:15.415Z,99347.88
2023-08-15T02:12:48.721Z,99365.84
2023-08-15T02:15:23.862Z,99356.47
2023-08-15T02:17:56.072Z,99348.78
2023-08-15T02:20:34.938Z,99350.94
2023-08-15T02:23:32.786Z,99347.66
2023-08-15T02:26:23.425Z,99345.75
2023-08-15T02:29:17.433Z,99350.63
2023-08-15T02:32:40.288Z,99363.75
2023-08-15T02:35:13.139Z,99359.56
2023-08-15T02:38:09.593Z,99358.72
2023-08-15T02:41:02.076Z,99382.16
2023-08-15T02:44:21.758Z,99406.91
2023-08-15T02:46:54.820Z,99401.09
2023-08-15T02:50:19.927Z,99410.06
2023-08-15T02:53:10.159Z,99400.63
2023-08-15T02:56:12.940Z,99387.06
2023-08-15T02:59:04.427Z,99384.16
2023-08-15T03:01:50.557Z,99397.66
2023-08-15T03:04:47.797Z,99388.13
2023-08-15T03:07:38.947Z,99389.75
2023-08-15T03:10:16.672Z,99390.75
2023-08-15T03:12:56.513Z,99384.50
2023-08-15T03:15:58.438Z,99393.38
2023-08-15T03:18:46.116Z,99393.53
2023-08-15T03:21:29.319Z,99378.44
2023-08-15T03:24:27.608Z,99378.97
2023-08-15T03:27:20.621Z,99367.78
2023-08-15T03:30:06.244Z,99379.66
2023-08-15T03:32:52.838Z,99373.78
2023-08-15T03:35:43.676Z,99374.94
2023-08-15T03:38:39.216Z,99377.34
2023-08-15T03:41:29.898Z,99385.22
2023-08-15T03:44:16.262Z,99383.41
2023-08-15T03:46:52.220Z,99374.72
2023-08-15T03:49:43.694Z,99390.78
2023-08-15T03:52:25.972Z,99387.75
2023-08-15T03:55:16.466Z,99396.06
2023-08-15T03:58:20.727Z,99390.97
2023-08-15T04:01:20.044Z,99388.03
2023-08-15T04:04:12.768Z,99388.59
2023-08-15T04:07:18.406Z,99403.22
2023-08-15T04:09:51.781Z,99393.91
2023-08-15T04:12:22.294Z,99379.44
2023-08-15T04:15:30.392Z,99410.22
2023-08-15T04:18:26.951Z,99424.16
2023-08-15T04:21:14.898Z,99453.16
2023-08-15T04:23:54.121Z,99465.91
2023-08-15T04:26:47.077Z,99481.66
2023-08-15T04:29:51.724Z,99474.16
2023-08-15T04:32:50.303Z,99475.41
2023-08-15T04:35:40.777Z,99504.56
2023-08-15T04:38:23.782Z,99500.38
2023-08-15T04:40:59.435Z,99502.69
2023-08-15T04:43:46.546Z,99501.16
2023-08-15T04:46:32.084Z,99505.81
2023-08-15T04:49:23.441Z,99507.47
2023-08-15T04:52:14.571Z,99517.69
2023-08-15T04:54:44.882Z,99504.16
2023-08-15T04:57:20.695Z,99507.47
2023-08-15T05:00:15.990Z,99515.50
2023-08-15T05:02:49.589Z,99521.88
2023-08-15T05:05:38.039Z,99524.38
2023-08-15T05:08:43.233Z,99523.81
2023-08-15T05:11:28.299Z,99535.00
2023-08-15T05:14:15.149Z,99523.81
2023-08-15T05:16:47.559Z,99521.88
2023-08-15T05:19:17.795Z,99517.97
2023-08-15T05:22:41.944Z,99516.31
2023-08-15T05:25:30.269Z,99509.41
2023-08-15T05:28:40.650Z,99496.38
2023-08-15T05:31:25.907Z,99494.28
2023-08-15T05:34:05.777Z,99495.50
2023-08-15T05:37:01.903Z,99500.97
2023-08-15T05:39:49.526Z,99491.97
2023-08-15T05:42:50.685Z,99488.34
2023-08-15T05:45:42.089Z,99495.66
2023-08-15T05:48:14.191Z,99493.38
2023-08-15T05:51:11.282Z,99489.75
2023-08-15T05:53:51.814Z,99490.50
2023-08-15T05:56:30.777Z,99488.47
2023-08-15T05:59:18.831Z,99476.41
2023-08-15T06:02:19.854Z,99473.53
2023-08-15T06:05:38.617Z,99473.97
2023-08-15T06:08:26.642Z,99474.72
2023-08-15T06:11:32.733Z,99463.25
2023-08-15T06:14:23.017Z,99461.50
2023-08-15T06:16:54.093Z,99465.97
2023-08-15T06:19:49.317Z,99467.31
2023-08-15T06:22:32.578Z,99467.97
2023-08-15T06:25:04.096Z,99465.03
2023-08-15T06:27:34.580Z,99468.84
2023-08-15T06:31:02.849Z,99460.94
2023-08-15T06:33:49.952Z,99461.81
2023-08-15T06:36:42.846Z,99458.41
2023-08-15T06:39:25.746Z,99447.09
2023-08-15T06:41:57.889Z,99452.38
2023-08-15T06:45:00.699Z,99448.44
2023-08-15T06:47:45.742Z,99450.94
2023-08-15T06:50:22.516Z,99450.78
2023-08-15T06:53:07.254Z,99446.34
2023-08-15T06:55:44.283Z,99440.63
2023-08-15T06:58:22.705Z,99436.66
2023-08-15T07:01:02.453Z,99432.38
2023-08-15T07:03:43.806Z,99432.88
2023-08-15T07:06:33.582Z,99450.34
2023-08-15T07:09:11.017Z,99458.41
2023-08-15T07:12:06.943Z,99458.41
2023-08-15T07:15:05.590Z,99456.09
2023-08-15T07:17:36.576Z,99461.56
2023-08-15T07:20:48.445Z,99467.16
2023-08-15T07:23:34.963Z,99462.69
2023-08-15T07:26:29.129Z,99472.22
2023-08-15T07:29:16.275Z,99467.59
2023-08-15T07:31:53.894Z,99468.91
2023-08-15T07:34:49.791Z,99471.19
2023-08-15T07:38:20.621Z,99472.78
2023-08-15T07:41:07.229Z,99471.78
2023-08-15T07:43:44.953Z,99484.25
2023-08-15T07:46:20.059Z,99485.06
2023-08-15T07:49:18.223Z,99481.19
2023-08-15T07:51:56.485Z,99486.91
2023-08-15T07:54:45.307Z,99490.97
2023-08-15T07:57:29.788Z,99493.25
2023-08-15T08:00:06.585Z,99491.03
2023-08-15T08:02:48.997Z,99492.09
2023-08-15T08:05:23.413Z,99477.81
2023-08-15T08:08:03.197Z,99474.53
2023-08-15T08:11:06.258Z,99474.31
2023-08-15T08:13:45.964Z,99468.75
2023-08-15T08:16:34.346Z,99476.25
2023-08-15T08:19:20.309Z,99472.34
2023-08-15T08:22:36.666Z,99468.25
2023-08-15T08:25:18.912Z,99471.31
2023-08-15T08:28:04.653Z,99480.34
2023-08-15T08:30:42.634Z,99489.66
2023-08-15T08:33:35.063Z,99490.00
2023-08-15T08:36:10.347Z,99492.09
2023-08-15T08:38:51.103Z,99498.88
2023-08-15T08:41:26.976Z,99495.72
2023-08-15T08:44:24.556Z,99499.41
2023-08-15T08:47:30.125Z,99523.28
2023-08-15T08:50:12.359Z,99533.63
2023-08-15T08:53:12.497Z,99528.22
2023-08-15T08:56:16.542Z,99534.72
2023-08-15T08:58:55.216Z,99533.09
2023-08-15T09:01:57.996Z,99533.09
2023-08-15T09:04:47.370Z,99521.47
2023-08-15T09:07:54.430Z,99519.34
2023-08-15T09:10:43.151Z,99511.66
2023-08-15T09:13:49.912Z,99519.50
2023-08-15T09:16:26.139Z,99521.66
2023-08-15T09:19:13.688Z,99517.25
2023-08-15T09:21:56.447Z,99527.88
2023-08-15T09:24:47.613Z,99522.94
2023-08-15T09:27:32.324Z,99528.31
2023-08-15T09:30:23.530Z,99530.69
2023-08-15T09:32:58.391Z,99532.59
2023-08-15T09:36:07.133Z,99534.88
2023-08-15T09:38:42.709Z,99528.16
2023-08-15T09:41:15.977Z,99529.44
2023-08-15T09:44:02.606Z,99535.22
2023-08-15T09:46:42.537Z,99534.94
2023-08-15T09:49:15.378Z,99528.28
2023-08-15T09:52:01.474Z,99523.66
2023-08-15T09:54:35.543Z,99521.69
2023-08-15T09:57:16.515Z,99536.47
2023-08-15T10:00:11.930Z,99537.72
2023-08-15T10:03:32.197Z,99533.31
2023-08-15T10:06:11.601Z,99537.50
2023-08-15T10:08:53.936Z,99549.91
2023-08-15T10:12:02.395Z,99540.53
2023-08-15T10:14:42.222Z,99548.31
2023-08-15T10:17:23.012Z,99563.03
2023-08-15T10:20:28.027Z,99563.78
2023-08-15T10:23:25.276Z,99570.97
2023-08-15T10:26:10.900Z,99563.84
2023-08-15T10:28:50.469Z,99571.72
2023-08-15T10:31:50.331Z,99564.88
2023-08-15T10:34:44.307Z,99578.72
2023-08-15T10:37:50.458Z,99573.47
2023-08-15T10:40:24.603Z,99576.59
2023-08-15T10:43:50.300Z,99582.75
2023-08-15T10:46:53.794Z,99593.88
2023-08-15T10:49:27.778Z,99587.72
2023-08-15T10:52:28.842Z,99584.81
2023-08-15T10:55:28.497Z,99584.59
2023-08-15T10:58:14.908Z,99581.50
2023-08-15T11:00:56.518Z,99586.75
2023-08-15T11:03:53.429Z,99595.56
2023-08-15T11:06:50.777Z,99577.53
2023-08-15T11:09:45.440Z,99567.56
2023-08-15T11:12:42.124Z,99572.06
2023-08-15T11:15:48.406Z,99574.53
2023-08-15T11:18:30.442Z,99569.81
2023-08-15T11:21:11.830Z,99566.72
2023-08-15T11:24:04.346Z,99568.72
2023-08-15T11:27:09.248Z,99570.47
2023-08-15T11:29:45.547Z,99558.16
2023-08-15T11:32:46.233Z,99548.78
2023-08-15T11:35:49.581Z,99545.47
2023-08-15T11:38:21.689Z,99551.63
2023-08-15T11:41:18.077Z,99559.81
2023-08-15T11:44:03.677Z,99543.63
2023-08-15T11:46:55.359Z,99551.81
2023-08-15T11:49:46.638Z,99557.94
2023-08-15T11:52:44.180Z,99564.63
2023-08-15T11:55:34.526Z,99583.78
2023-08-15T11:58:33.326Z,99582.31
2023-08-15T12:01:11.615Z,99566.44
2023-08-15T12:04:03.929Z,99596.88
2023-08-15T12:07:14.456Z,99581.91
2023-08-15T12:10:22.744Z,99582.81
2023-08-15T12:13:07.275Z,99578.06
2023-08-15T12:15:51.351Z,99583.53
2023-08-15T12:18:46.272Z,99591.97
2023-08-15T12:21:26.978Z,99594.69
2023-08-15T12:24:02.238Z,99600.75
2023-08-15T12:26:50.021Z,99603.94
2023-08-15T12:30:10.852Z,99599.84
2023-08-15T12:32:31.320Z,99586.97
2023-08-15T12:35:31.707Z,99593.84
2023-08-15T12:38:37.900Z,99584.19
2023-08-15T12:41:23.928Z,99584.56
2023-08-15T12:44:38.077Z,99603.06
2023-08-15T12:47:25.963Z,99597.81
2023-08-15T12:50:06.491Z,99601.75
2023-08-15T12:52:52.955Z,99605.94
2023-08-15T12:55:33.105Z,99604.94
2023-08-15T12:58:19.120Z,99607.91
2023-08-15T13:01:32.930Z,99609.34
2023-08-15T13:04:13.690Z,99607.16
2023-08-15T13:06:49.848Z,99601.38
2023-08-15T13:09:37.986Z,99598.78
2023-08-15T13:12:22.130Z,99604.41
2023-08-15T13:15:13.212Z,99604.22
2023-08-15T13:18:43.483Z,99608.84
2023-08-15T13:21:24.498Z,99608.63
2023-08-15T13:24:29.637Z,99616.47
2023-08-15T13:27:23.867Z,99615.59
2023-08-15T13:30:18.401Z,99618.53
2023-08-15T13:32:49.147Z,99612.34
2023-08-15T13:35:46.149Z,99605.78
2023-08-15T13:38:47.053Z,99622.63
2023-08-15T13:41:36.963Z,99618.72
2023-08-15T13:44:21.030Z,99615.63
2023-08-15T13:46:56.694Z,99603.13
2023-08-15T13:49:53.944Z,99598.78
2023-08-15T13:52:29.954Z,99593.31
2023-08-15T13:55:08.118Z,99597.25
2023-08-15T13:57:47.187Z,99595.94
2023-08-15T14:00:46.938Z,99597.50
2023-08-15T14:03:31.313Z,99602.78
2023-08-15T14:06:20.246Z,99594.16
2023-08-15T14:09:15.356Z,99584.09
2023-08-15T14:11:51.530Z,99593.22
2023-08-15T14:14:45.888Z,99568.88
2023-08-15T14:17:28.170Z,99576.56
2023-08-15T14:20:24.847Z,99576.06
2023-08-15T14:23:03.536Z,99581.63
2023-08-15T14:25:39.519Z,99580.97
2023-08-15T14:28:18.468Z,99583.88
2023-08-15T14:31:25.214Z,99573.78
2023-08-15T14:34:12.135Z,99583.78
2023-08-15T14:36:43.943Z,99588.94
2023-08-15T14:39:18.782Z,99587.34
2023-08-15T14:42:36.761Z,99588.78
2023-08-15T14:45:20.404Z,99590.84
2023-08-15T14:48:01.459Z,99597.63
2023-08-15T14:50:45.374Z,99595.16
2023-08-15T14:53:21.918Z,99590.00
2023-08-15T14:56:15.354Z,99581.25
2023-08-15T14:59:01.470Z,99574.94
2023-08-15T15:01:37.655Z,99573.78
2023-08-15T15:04:17.843Z,99577.34
2023-08-15T15:07:04.079Z,99576.47
2023-08-15T15:10:00.153Z,99564.03
2023-08-15T15:12:53.283Z,99574.72
2023-08-15T15:16:17.426Z,99577.25
2023-08-15T15:19:28.381Z,99572.34
2023-08-15T15:22:27.676Z,99579.50
2023-08-15T15:25:11.782Z,99589.91
2023-08-15T15:27:48.749Z,99593.28
2023-08-15T15:30:20.291Z,99596.16
2023-08-15T15:33:35.280Z,99585.50
2023-08-15T15:36:41.949Z,99595.63
2023-08-15T15:39:33.536Z,99593.66
2023-08-15T15:42:36.524Z,99596.50
2023-08-15T15:45:27.964Z,99598.72
2023-08-15T15:48:04.424Z,99610.09
2023-08-15T15:50:59.486Z,99616.06
2023-08-15T15:53:42.116Z,99624.66
2023-08-15T15:56:33.584Z,99613.09
2023-08-15T15:59:14.614Z,99614.63
2023-08-15T16:01:51.699Z,99612.91
2023-08-15T16:04:54.909Z,99612.41
2023-08-15T16:08:13.504Z,99613.31
2023-08-15T16:11:11.225Z,99617.47
2023-08-15T16:13:57.113Z,99614.16
2023-08-15T16:16:54.656Z,99604.28
2023-08-15T16:19:48.901Z,99599.81
2023-08-15T16:22:22.930Z,99603.31
2023-08-15T16:25:09.796Z,99589.53
2023-08-15T16:28:02.421Z,99588.75
2023-08-15T16:31:01.642Z,99590.69
2023-08-15T16:34:16.405Z,99572.38
2023-08-15T16:37:22.424Z,99582.38
2023-08-15T16:40:34.183Z,99587.66
2023-08-15T16:43:21.885Z,99584.31
2023-08-15T16:46:06.314Z,99583.06
2023-08-15T16:48:55.565Z,99592.91
2023-08-15T16:52:00.474Z,99573.72
2023-08-15T16:54:46.808Z,99586.09
2023-08-15T16:57:25.027Z,99574.97
2023-08-15T17:00:18.423Z,99583.97
2023-08-15T17:02:54.099Z,99587.84
2023-08-15T17:05:52.407Z,99582.47
2023-08-15T17:08:48.210Z,99599.06
2023-08-15T17:11:54.002Z,99612.16
2023-08-15T17:14:33.365Z,99608.75
2023-08-15T17:17:06.400Z,99603.66
2023-08-15T17:19:40.511Z,99614.69
2023-08-15T17:22:28.286Z,99615.59
2023-08-15T17:25:12.610Z,99610.66
2023-08-15T17:27:52.150Z,99621.19
2023-08-15T17:30:45.599Z,99631.22
2023-08-15T17:33:43.348Z,99635.34
2023-08-15T17:36:41.686Z,99650.31
2023-08-15T17:39:45.414Z,99648.84
2023-08-15T17:42:47.387Z,99651.25
2023-08-15T17:45:36.145Z,99661.63
2023-08-15T17:48:26.386Z,99661.03
2023-08-15T17:51:10.348Z,99658.28
2023-08-15T17:54:03.998Z,99662.97
2023-08-15T17:56:36.606Z,99678.78
2023-08-15T17:59:28.102Z,99678.22
2023-08-15T18:02:03.946Z,99684.09
2023-08-15T18:05:14.250Z,99679.63
2023-08-15T18:07:57.252Z,99683.53
2023-08-15T18:10:31.940Z,99686.34
2023-08-15T18:13:06.843Z,99698.09
2023-08-15T18:15:52.153Z,99696.56
2023-08-15T18:18:36.431Z,99704.94
2023-08-15T18:21:17.785Z,99704.88
2023-08-15T18:24:02.794Z,99704.91
2023-08-15T18:27:20.937Z,99701.97
2023-08-15T18:30:05.182Z,99721.66
2023-08-15T18:32:57.896Z,99728.94
2023-08-15T18:35:45.234Z,99741.31
2023-08-15T18:38:33.110Z,99741.97
2023-08-15T18:41:19.558Z,99746.56
2023-08-15T18:44:15.665Z,99736.16
2023-08-15T18:46:51.933Z,99734.63
2023-08-15T18:49:36.256Z,99730.63
2023-08-15T18:52:28.133Z,99737.50
2023-08-15T18:55:26.746Z,99742.38
2023-08-15T18:58:13.366Z,99737.72
2023-08-15T19:01:11.903Z,99744.38
2023-08-15T19:03:53.189Z,99748.16
2023-08-15T19:06:38.270Z,99752.38
2023-08-15T19:09:25.150Z,99751.88
2023-08-15T19:11:58.703Z,99760.28
2023-08-15T19:15:01.266Z,99754.44
2023-08-15T19:18:07.831Z,99764.31
2023-08-15T19:20:47.895Z,99767.06
2023-08-15T19:23:30.700Z,99764.38
2023-08-15T19:26:36.676Z,99771.25
2023-08-15T19:30:01.554Z,99767.34
2023-08-15T19:32:47.054Z,99771.38
2023-08-15T19:35:31.210Z,99771.00
2023-08-15T19:38:12.012Z,99775.25
2023-08-15T19:40:48.985Z,99778.09
2023-08-15T19:43:33.441Z,99773.34
2023-08-15T19:46:30.451Z,99768.28
2023-08-15T19:49:32.511Z,99769.88
2023-08-15T19:52:23.048Z,99777.09
2023-08-15T19:55:37.149Z,99764.59
2023-08-15T19:58:26.928Z,99765.56
2023-08-15T20:01:03.550Z,99767.25
2023-08-15T20:03:46.604Z,99768.59
2023-08-15T20:06:33.814Z,99773.88
2023-08-15T20:09:34.403Z,99768.38
2023-08-15T20:12:31.238Z,99759.81
2023-08-15T20:15:25.330Z,99767.63
2023-08-15T20:18:06.091Z,99753.09
2023-08-15T20:20:39.547Z,99757.09
2023-08-15T20:23:35.291Z,99757.38
2023-08-15T20:26:09.424Z,99757.31
2023-08-15T20:29:03.415Z,99757.78
2023-08-15T20:31:35.156Z,99760.75
2023-08-15T20:34:40.582Z,99757.88
2023-08-15T20:38:10.235Z,99762.22
2023-08-15T20:40:56.236Z,99754.84
2023-08-15T20:43:51.278Z,99761.22
2023-08-15T20:46:36.921Z,99767.75
2023-08-15T20:49:23.491Z,99772.75
2023-08-15T20:52:07.648Z,99770.13
2023-08-15T20:54:54.372Z,99765.41
2023-08-15T20:57:48.197Z,99777.88
2023-08-15T21:00:18.909Z,99779.81
2023-08-15T21:03:31.273Z,99781.75
2023-08-15T21:06:04.327Z,99783.69
2023-08-15T21:09:03.190Z,99781.75
2023-08-15T21:11:48.430Z,99771.50
2023-08-15T21:14:38.396Z,99783.56
2023-08-15T21:17:32.625Z,99766.28
2023-08-15T21:20:37.719Z,99782.88
2023-08-15T21:23:11.592Z,99783.97
2023-08-15T21:25:46.643Z,99779.84
2023-08-15T21:29:01.932Z,99785.66
2023-08-15T21:31:51.100Z,99775.72
2023-08-15T21:34:42.138Z,99779.59
2023-08-15T21:37:36.841Z,99780.44
2023-08-15T21:40:27.559Z,99774.75
2023-08-15T21:43:06.450Z,99793.31
2023-08-15T21:46:01.368Z,99788.59
2023-08-15T21:49:04.743Z,99796.75
2023-08-15T21:52:09.486Z,99795.94
2023-08-15T21:54:41.044Z,99797.00
2023-08-15T21:57:40.939Z,99797.28
2023-08-15T22:00:36.873Z,99798.50
2023-08-15T22:03:52.969Z,99808.91
2023-08-15T22:06:49.410Z,99804.72
2023-08-15T22:10:05.660Z,99810.81
2023-08-15T22:12:51.632Z,99804.47
2023-08-15T22:15:30.959Z,99801.97
2023-08-15T22:18:18.895Z,99808.31
2023-08-15T22:21:53.180Z,99808.59
2023-08-15T22:25:01.176Z,99814.66
2023-08-15T22:27:51.641Z,99812.44
2023-08-15T22:30:28.554Z,99808.19
2023-08-15T22:33:24.998Z,99803.06
2023-08-15T22:36:22.064Z,99803.31
2023-08-15T22:39:18.739Z,99811.59
2023-08-15T22:42:32.031Z,99810.75
2023-08-15T22:45:22.186Z,99809.38
2023-08-15T22:48:28.492Z,99810.22
2023-08-15T22:51:08.030Z,99817.50
2023-08-15T22:53:50.816Z,99808.38
2023-08-15T22:56:33.300Z,99778.59
2023-08-15T22:59:39.155Z,99813.31
2023-08-15T23:02:24.823Z,99803.28
2023-08-15T23:05:21.985Z,99800.38
2023-08-15T23:08:25.092Z,99794.97
2023-08-15T23:11:13.418Z,99804.81
2023-08-15T23:13:47.186Z,99802.75
2023-08-15T23:16:36.351Z,99803.81
2023-08-15T23:19:46.904Z,99788.31
2023-08-15T23:23:01.459Z,99795.75
2023-08-15T23:25:46.763Z,99792.97
2023-08-15T23:28:51.284Z,99785.47
2023-08-15T23:32:08.382Z,99791.31
2023-08-15T23:34:57.207Z,99774.97
2023-08-15T23:37:42.874Z,99791.16
2023-08-15T23:40:20.324Z,99786.56
2023-08-15T23:43:08.056Z,99787.69
2023-08-15T23:45:50.842Z,99781.88
2023-08-15T23:48:35.798Z,99781.44
2023-08-15T23:51:40.388Z,99782.22
2023-08-15T23:54:28.654Z,99788.97
2023-08-15T23:57:25.873Z,99780.53
